sensor_id;sensor_type;location;lat;lon;timestamp;temperature;humidity
2539;DHT22;1280;49.760;9.664;2022-07-29T00:02:14;23.50;52.00
2539;DHT22;1280;49.760;9.664;2022-07-29T00:04:42;23.40;52.00
2539;DHT22;1280;49.760;9.664;2022-07-29T00:07:10;23.40;52.00
2539;DHT22;1280;49.760;9.664;2022-07-29T00:09:39;23.40;52.00
2539;DHT22;1280;49.760;9.664;2022-07-29T00:12:18;23.30;52.10
2539;DHT22;1280;49.760;9.664;2022-07-29T00:14:53;23.20;52.10
2539;DHT22;1280;49.760;9.664;2022-07-29T00:17:23;23.20;52.20
2539;DHT22;1280;49.760;9.664;2022-07-29T00:19:52;23.10;52.30
2539;DHT22;1280;49.760;9.664;2022-07-29T00:22:20;23.10;52.40
2539;DHT22;1280;49.760;9.664;2022-07-29T00:24:48;23.10;52.50
2539;DHT22;1280;49.760;9.664;2022-07-29T00:27:17;23.00;52.60
2539;DHT22;1280;49.760;9.664;2022-07-29T00:29:45;23.00;52.60
2539;DHT22;1280;49.760;9.664;2022-07-29T00:32:13;23.00;52.70
2539;DHT22;1280;49.760;9.664;2022-07-29T00:34:42;23.00;52.80
2539;DHT22;1280;49.760;9.664;2022-07-29T00:37:28;23.00;52.90
2539;DHT22;1280;49.760;9.664;2022-07-29T00:39:56;22.90;53.00
2539;DHT22;1280;49.760;9.664;2022-07-29T00:42:24;22.90;53.10
2539;DHT22;1280;49.760;9.664;2022-07-29T00:44:52;22.80;53.20
2539;DHT22;1280;49.760;9.664;2022-07-29T00:47:20;22.80;53.20
2539;DHT22;1280;49.760;9.664;2022-07-29T00:49:49;22.80;53.30
2539;DHT22;1280;49.760;9.664;2022-07-29T00:52:17;22.70;53.30
2539;DHT22;1280;49.760;9.664;2022-07-29T00:54:45;22.70;53.30
2539;DHT22;1280;49.760;9.664;2022-07-29T00:57:13;22.70;53.40
2539;DHT22;1280;49.760;9.664;2022-07-29T00:59:41;22.70;53.50
2539;DHT22;1280;49.760;9.664;2022-07-29T01:02:09;22.70;53.50
2539;DHT22;1280;49.760;9.664;2022-07-29T01:04:38;22.70;53.50
2539;DHT22;1280;49.760;9.664;2022-07-29T01:07:07;22.70;53.40
2539;DHT22;1280;49.760;9.664;2022-07-29T01:09:36;22.60;53.40
2539;DHT22;1280;49.760;9.664;2022-07-29T01:12:16;22.60;53.40
2539;DHT22;1280;49.760;9.664;2022-07-29T01:14:45;22.50;53.50
2539;DHT22;1280;49.760;9.664;2022-07-29T01:17:18;22.40;53.60
2539;DHT22;1280;49.760;9.664;2022-07-29T01:19:51;22.40;53.70
2539;DHT22;1280;49.760;9.664;2022-07-29T01:22:47;22.40;53.80
2539;DHT22;1280;49.760;9.664;2022-07-29T01:28:51;22.40;54.00
2539;DHT22;1280;49.760;9.664;2022-07-29T01:31:28;22.40;54.10
2539;DHT22;1280;49.760;9.664;2022-07-29T01:34:05;22.40;54.10
2539;DHT22;1280;49.760;9.664;2022-07-29T01:36:37;22.40;54.20
2539;DHT22;1280;49.760;9.664;2022-07-29T01:39:11;22.30;54.20
2539;DHT22;1280;49.760;9.664;2022-07-29T01:41:45;22.30;54.30
2539;DHT22;1280;49.760;9.664;2022-07-29T01:44:20;22.30;54.40
2539;DHT22;1280;49.760;9.664;2022-07-29T01:46:53;22.30;54.40
2539;DHT22;1280;49.760;9.664;2022-07-29T01:49:25;22.30;54.40
2539;DHT22;1280;49.760;9.664;2022-07-29T01:51:57;22.30;54.50
2539;DHT22;1280;49.760;9.664;2022-07-29T01:54:30;22.30;54.50
2539;DHT22;1280;49.760;9.664;2022-07-29T01:57:00;22.20;54.60
2539;DHT22;1280;49.760;9.664;2022-07-29T01:59:31;22.20;54.60
2539;DHT22;1280;49.760;9.664;2022-07-29T02:02:04;22.20;54.60
2539;DHT22;1280;49.760;9.664;2022-07-29T02:04:36;22.20;54.70
2539;DHT22;1280;49.760;9.664;2022-07-29T02:07:06;22.20;54.80
2539;DHT22;1280;49.760;9.664;2022-07-29T02:09:35;22.20;54.90
2539;DHT22;1280;49.760;9.664;2022-07-29T02:12:06;22.10;55.00
2539;DHT22;1280;49.760;9.664;2022-07-29T02:14:39;22.10;55.10
2539;DHT22;1280;49.760;9.664;2022-07-29T02:17:08;22.10;55.20
2539;DHT22;1280;49.760;9.664;2022-07-29T02:19:37;22.00;55.20
2539;DHT22;1280;49.760;9.664;2022-07-29T02:22:06;21.90;55.30
2539;DHT22;1280;49.760;9.664;2022-07-29T02:24:37;21.90;55.40
2539;DHT22;1280;49.760;9.664;2022-07-29T02:27:07;21.90;55.40
2539;DHT22;1280;49.760;9.664;2022-07-29T02:29:38;21.80;55.60
2539;DHT22;1280;49.760;9.664;2022-07-29T02:32:07;21.80;55.70
2539;DHT22;1280;49.760;9.664;2022-07-29T02:34:38;21.70;55.80
2539;DHT22;1280;49.760;9.664;2022-07-29T02:37:09;21.70;55.90
2539;DHT22;1280;49.760;9.664;2022-07-29T02:39:39;21.70;56.00
2539;DHT22;1280;49.760;9.664;2022-07-29T02:42:11;21.60;56.10
2539;DHT22;1280;49.760;9.664;2022-07-29T02:44:41;21.60;56.30
2539;DHT22;1280;49.760;9.664;2022-07-29T02:47:13;21.60;56.30
2539;DHT22;1280;49.760;9.664;2022-07-29T02:49:48;21.50;56.40
2539;DHT22;1280;49.760;9.664;2022-07-29T02:52:21;21.50;56.50
2539;DHT22;1280;49.760;9.664;2022-07-29T02:54:54;21.50;56.50
2539;DHT22;1280;49.760;9.664;2022-07-29T02:57:30;21.50;56.50
2539;DHT22;1280;49.760;9.664;2022-07-29T03:00:03;21.50;56.60
2539;DHT22;1280;49.760;9.664;2022-07-29T03:02:35;21.50;56.60
2539;DHT22;1280;49.760;9.664;2022-07-29T03:05:06;21.50;56.70
2539;DHT22;1280;49.760;9.664;2022-07-29T03:07:37;21.40;56.70
2539;DHT22;1280;49.760;9.664;2022-07-29T03:10:14;21.40;56.80
2539;DHT22;1280;49.760;9.664;2022-07-29T03:12:43;21.40;56.90
2539;DHT22;1280;49.760;9.664;2022-07-29T03:15:13;21.40;57.00
2539;DHT22;1280;49.760;9.664;2022-07-29T03:17:41;21.30;57.10
2539;DHT22;1280;49.760;9.664;2022-07-29T03:20:10;21.30;57.10
2539;DHT22;1280;49.760;9.664;2022-07-29T03:22:39;21.30;57.20
2539;DHT22;1280;49.760;9.664;2022-07-29T03:25:10;21.20;57.20
2539;DHT22;1280;49.760;9.664;2022-07-29T03:27:39;21.20;57.30
2539;DHT22;1280;49.760;9.664;2022-07-29T03:30:08;21.20;57.40
2539;DHT22;1280;49.760;9.664;2022-07-29T03:32:38;21.20;57.50
2539;DHT22;1280;49.760;9.664;2022-07-29T03:35:07;21.20;57.60
2539;DHT22;1280;49.760;9.664;2022-07-29T03:37:35;21.20;57.60
2539;DHT22;1280;49.760;9.664;2022-07-29T03:40:07;21.20;57.60
2539;DHT22;1280;49.760;9.664;2022-07-29T03:42:39;21.20;57.60
2539;DHT22;1280;49.760;9.664;2022-07-29T03:45:10;21.30;57.70
2539;DHT22;1280;49.760;9.664;2022-07-29T03:47:43;21.30;57.70
2539;DHT22;1280;49.760;9.664;2022-07-29T03:50:17;21.30;57.70
2539;DHT22;1280;49.760;9.664;2022-07-29T03:52:47;21.20;57.70
2539;DHT22;1280;49.760;9.664;2022-07-29T03:55:16;21.20;57.80
2539;DHT22;1280;49.760;9.664;2022-07-29T03:57:45;21.20;57.90
2539;DHT22;1280;49.760;9.664;2022-07-29T04:00:14;21.10;57.90
2539;DHT22;1280;49.760;9.664;2022-07-29T04:02:44;21.10;58.00
2539;DHT22;1280;49.760;9.664;2022-07-29T04:05:16;21.10;58.10
2539;DHT22;1280;49.760;9.664;2022-07-29T04:07:45;21.10;58.10
2539;DHT22;1280;49.760;9.664;2022-07-29T04:10:13;21.10;58.20
2539;DHT22;1280;49.760;9.664;2022-07-29T04:12:55;21.10;58.20
2539;DHT22;1280;49.760;9.664;2022-07-29T04:15:23;21.10;58.20
2539;DHT22;1280;49.760;9.664;2022-07-29T04:17:58;21.10;58.10
2539;DHT22;1280;49.760;9.664;2022-07-29T04:20:26;21.10;58.00
2539;DHT22;1280;49.760;9.664;2022-07-29T04:22:54;21.00;58.00
2539;DHT22;1280;49.760;9.664;2022-07-29T04:25:22;21.00;58.10
2539;DHT22;1280;49.760;9.664;2022-07-29T04:27:50;20.90;58.10
2539;DHT22;1280;49.760;9.664;2022-07-29T04:30:31;20.90;58.20
2539;DHT22;1280;49.760;9.664;2022-07-29T04:33:02;21.00;58.30
2539;DHT22;1280;49.760;9.664;2022-07-29T04:35:33;21.00;58.30
2539;DHT22;1280;49.760;9.664;2022-07-29T04:38:04;21.00;58.20
2539;DHT22;1280;49.760;9.664;2022-07-29T04:40:33;21.00;58.20
2539;DHT22;1280;49.760;9.664;2022-07-29T04:43:04;20.90;58.30
2539;DHT22;1280;49.760;9.664;2022-07-29T04:45:33;20.90;58.30
2539;DHT22;1280;49.760;9.664;2022-07-29T04:48:02;21.00;58.30
2539;DHT22;1280;49.760;9.664;2022-07-29T04:50:30;21.00;58.50
2539;DHT22;1280;49.760;9.664;2022-07-29T04:52:58;21.00;58.50
2539;DHT22;1280;49.760;9.664;2022-07-29T04:55:26;21.10;58.60
2539;DHT22;1280;49.760;9.664;2022-07-29T04:57:54;21.20;58.70
2539;DHT22;1280;49.760;9.664;2022-07-29T05:00:22;21.20;58.90
2539;DHT22;1280;49.760;9.664;2022-07-29T05:02:59;21.40;58.90
2539;DHT22;1280;49.760;9.664;2022-07-29T05:05:28;21.50;59.00
2539;DHT22;1280;49.760;9.664;2022-07-29T05:07:56;21.70;58.80
2539;DHT22;1280;49.760;9.664;2022-07-29T05:10:24;21.90;58.80
2539;DHT22;1280;49.760;9.664;2022-07-29T05:12:52;22.10;58.60
2539;DHT22;1280;49.760;9.664;2022-07-29T05:15:20;22.30;58.50
2539;DHT22;1280;49.760;9.664;2022-07-29T05:17:48;22.40;58.40
2539;DHT22;1280;49.760;9.664;2022-07-29T05:20:16;22.60;58.30
2539;DHT22;1280;49.760;9.664;2022-07-29T05:22:46;22.80;58.20
2539;DHT22;1280;49.760;9.664;2022-07-29T05:25:14;23.00;58.10
2539;DHT22;1280;49.760;9.664;2022-07-29T05:27:42;23.20;58.10
2539;DHT22;1280;49.760;9.664;2022-07-29T05:30:10;23.50;57.60
2539;DHT22;1280;49.760;9.664;2022-07-29T05:32:38;23.70;56.60
2539;DHT22;1280;49.760;9.664;2022-07-29T05:35:07;23.70;56.20
2539;DHT22;1280;49.760;9.664;2022-07-29T05:37:35;24.20;56.60
2539;DHT22;1280;49.760;9.664;2022-07-29T05:40:06;25.10;55.60
2539;DHT22;1280;49.760;9.664;2022-07-29T05:42:34;25.60;53.80
2539;DHT22;1280;49.760;9.664;2022-07-29T05:45:03;25.90;53.40
2539;DHT22;1280;49.760;9.664;2022-07-29T05:47:31;26.00;53.40
2539;DHT22;1280;49.760;9.664;2022-07-29T05:49:59;26.70;53.10
2539;DHT22;1280;49.760;9.664;2022-07-29T05:52:27;27.40;52.10
2539;DHT22;1280;49.760;9.664;2022-07-29T05:54:55;28.20;51.40
2539;DHT22;1280;49.760;9.664;2022-07-29T05:57:25;29.10;50.40
2539;DHT22;1280;49.760;9.664;2022-07-29T05:59:53;30.00;49.10
2539;DHT22;1280;49.760;9.664;2022-07-29T06:02:21;30.80;48.10
2539;DHT22;1280;49.760;9.664;2022-07-29T06:04:49;31.40;47.10
2539;DHT22;1280;49.760;9.664;2022-07-29T06:07:17;31.90;46.10
2539;DHT22;1280;49.760;9.664;2022-07-29T06:09:45;32.30;45.20
2539;DHT22;1280;49.760;9.664;2022-07-29T06:12:13;32.60;44.40
2539;DHT22;1280;49.760;9.664;2022-07-29T06:14:42;32.70;43.70
2539;DHT22;1280;49.760;9.664;2022-07-29T06:17:10;32.50;43.40
2539;DHT22;1280;49.760;9.664;2022-07-29T06:19:39;32.40;43.50
2539;DHT22;1280;49.760;9.664;2022-07-29T06:22:07;32.10;42.30
2539;DHT22;1280;49.760;9.664;2022-07-29T06:24:36;31.00;42.50
2539;DHT22;1280;49.760;9.664;2022-07-29T06:27:04;29.70;43.10
2539;DHT22;1280;49.760;9.664;2022-07-29T06:29:32;28.50;43.90
2539;DHT22;1280;49.760;9.664;2022-07-29T06:32:01;27.50;44.80
2539;DHT22;1280;49.760;9.664;2022-07-29T06:34:29;26.70;45.60
2539;DHT22;1280;49.760;9.664;2022-07-29T06:36:57;26.00;46.40
2539;DHT22;1280;49.760;9.664;2022-07-29T06:39:25;25.50;47.20
2539;DHT22;1280;49.760;9.664;2022-07-29T06:41:54;25.10;47.80
2539;DHT22;1280;49.760;9.664;2022-07-29T06:44:24;24.80;48.30
2539;DHT22;1280;49.760;9.664;2022-07-29T06:46:52;24.60;48.80
2539;DHT22;1280;49.760;9.664;2022-07-29T06:49:22;24.50;49.30
2539;DHT22;1280;49.760;9.664;2022-07-29T06:51:52;24.40;49.70
2539;DHT22;1280;49.760;9.664;2022-07-29T06:54:21;24.30;49.90
2539;DHT22;1280;49.760;9.664;2022-07-29T06:56:49;24.20;50.40
2539;DHT22;1280;49.760;9.664;2022-07-29T06:59:17;24.20;50.60
2539;DHT22;1280;49.760;9.664;2022-07-29T07:01:51;24.20;50.90
2539;DHT22;1280;49.760;9.664;2022-07-29T07:04:19;24.10;51.10
2539;DHT22;1280;49.760;9.664;2022-07-29T07:06:49;24.00;51.30
2539;DHT22;1280;49.760;9.664;2022-07-29T07:09:16;24.00;51.60
2539;DHT22;1280;49.760;9.664;2022-07-29T07:11:44;24.00;51.80
2539;DHT22;1280;49.760;9.664;2022-07-29T07:14:15;24.00;51.90
2539;DHT22;1280;49.760;9.664;2022-07-29T07:16:43;24.00;52.10
2539;DHT22;1280;49.760;9.664;2022-07-29T07:19:11;24.00;52.30
2539;DHT22;1280;49.760;9.664;2022-07-29T07:21:39;24.00;52.40
2539;DHT22;1280;49.760;9.664;2022-07-29T07:24:10;24.10;52.50
2539;DHT22;1280;49.760;9.664;2022-07-29T07:26:38;24.20;52.60
2539;DHT22;1280;49.760;9.664;2022-07-29T07:29:06;24.20;52.80
2539;DHT22;1280;49.760;9.664;2022-07-29T07:31:36;24.30;52.90
2539;DHT22;1280;49.760;9.664;2022-07-29T07:34:04;24.30;52.90
2539;DHT22;1280;49.760;9.664;2022-07-29T07:36:32;24.40;53.10
2539;DHT22;1280;49.760;9.664;2022-07-29T07:39:00;24.50;53.00
2539;DHT22;1280;49.760;9.664;2022-07-29T07:41:30;24.50;53.10
2539;DHT22;1280;49.760;9.664;2022-07-29T07:43:58;24.60;53.10
2539;DHT22;1280;49.760;9.664;2022-07-29T07:46:26;24.70;53.20
2539;DHT22;1280;49.760;9.664;2022-07-29T07:48:54;24.80;53.20
2539;DHT22;1280;49.760;9.664;2022-07-29T07:51:22;24.90;53.20
2539;DHT22;1280;49.760;9.664;2022-07-29T07:53:50;25.00;53.10
2539;DHT22;1280;49.760;9.664;2022-07-29T07:56:19;25.00;53.00
2539;DHT22;1280;49.760;9.664;2022-07-29T07:58:49;25.00;52.90
2539;DHT22;1280;49.760;9.664;2022-07-29T08:01:17;25.00;52.90
2539;DHT22;1280;49.760;9.664;2022-07-29T08:03:47;25.00;52.90
2539;DHT22;1280;49.760;9.664;2022-07-29T08:06:15;25.00;53.00
2539;DHT22;1280;49.760;9.664;2022-07-29T08:08:43;25.00;53.10
2539;DHT22;1280;49.760;9.664;2022-07-29T08:11:14;25.00;53.10
2539;DHT22;1280;49.760;9.664;2022-07-29T08:13:42;25.10;53.10
2539;DHT22;1280;49.760;9.664;2022-07-29T08:16:12;25.10;53.10
2539;DHT22;1280;49.760;9.664;2022-07-29T08:18:42;25.20;53.10
2539;DHT22;1280;49.760;9.664;2022-07-29T08:21:10;25.20;53.20
2539;DHT22;1280;49.760;9.664;2022-07-29T08:23:42;25.30;53.10
2539;DHT22;1280;49.760;9.664;2022-07-29T08:26:24;25.30;53.10
2539;DHT22;1280;49.760;9.664;2022-07-29T08:28:52;25.30;53.10
2539;DHT22;1280;49.760;9.664;2022-07-29T08:31:21;25.40;53.10
2539;DHT22;1280;49.760;9.664;2022-07-29T08:33:49;25.40;53.00
2539;DHT22;1280;49.760;9.664;2022-07-29T08:36:17;25.50;53.00
2539;DHT22;1280;49.760;9.664;2022-07-29T08:38:47;25.50;53.00
2539;DHT22;1280;49.760;9.664;2022-07-29T08:41:16;25.60;53.10
2539;DHT22;1280;49.760;9.664;2022-07-29T08:43:45;25.60;53.00
2539;DHT22;1280;49.760;9.664;2022-07-29T08:46:13;25.60;52.90
2539;DHT22;1280;49.760;9.664;2022-07-29T08:48:43;25.60;52.80
2539;DHT22;1280;49.760;9.664;2022-07-29T08:51:14;25.50;52.80
2539;DHT22;1280;49.760;9.664;2022-07-29T08:53:43;25.50;52.90
2539;DHT22;1280;49.760;9.664;2022-07-29T08:56:12;25.50;52.90
2539;DHT22;1280;49.760;9.664;2022-07-29T08:58:41;25.50;53.00
2539;DHT22;1280;49.760;9.664;2022-07-29T09:01:16;25.50;53.00
2539;DHT22;1280;49.760;9.664;2022-07-29T09:03:47;25.40;52.90
2539;DHT22;1280;49.760;9.664;2022-07-29T09:06:18;25.40;52.90
2539;DHT22;1280;49.760;9.664;2022-07-29T09:08:47;25.40;52.90
2539;DHT22;1280;49.760;9.664;2022-07-29T09:11:15;25.40;53.00
2539;DHT22;1280;49.760;9.664;2022-07-29T09:13:43;25.40;53.00
2539;DHT22;1280;49.760;9.664;2022-07-29T09:16:11;25.40;53.10
2539;DHT22;1280;49.760;9.664;2022-07-29T09:19:00;25.40;53.20
2539;DHT22;1280;49.760;9.664;2022-07-29T09:21:40;25.30;53.30
2539;DHT22;1280;49.760;9.664;2022-07-29T09:24:43;25.30;53.50
2539;DHT22;1280;49.760;9.664;2022-07-29T09:27:19;25.30;53.70
2539;DHT22;1280;49.760;9.664;2022-07-29T09:29:56;25.30;53.90
2539;DHT22;1280;49.760;9.664;2022-07-29T09:32:24;25.30;53.90
2539;DHT22;1280;49.760;9.664;2022-07-29T09:35:14;25.30;54.00
2539;DHT22;1280;49.760;9.664;2022-07-29T09:37:42;25.40;54.00
2539;DHT22;1280;49.760;9.664;2022-07-29T09:40:13;25.40;54.20
2539;DHT22;1280;49.760;9.664;2022-07-29T09:42:42;25.50;54.20
2539;DHT22;1280;49.760;9.664;2022-07-29T09:45:10;25.50;54.50
2539;DHT22;1280;49.760;9.664;2022-07-29T09:47:43;25.60;54.80
2539;DHT22;1280;49.760;9.664;2022-07-29T09:50:17;25.70;55.00
2539;DHT22;1280;49.760;9.664;2022-07-29T09:52:51;25.80;55.00
2539;DHT22;1280;49.760;9.664;2022-07-29T09:55:19;25.80;54.80
2539;DHT22;1280;49.760;9.664;2022-07-29T09:57:47;25.80;54.80
2539;DHT22;1280;49.760;9.664;2022-07-29T10:00:17;25.80;54.90
2539;DHT22;1280;49.760;9.664;2022-07-29T10:02:46;25.90;54.80
2539;DHT22;1280;49.760;9.664;2022-07-29T10:05:21;25.90;54.70
2539;DHT22;1280;49.760;9.664;2022-07-29T10:07:51;25.90;54.50
2539;DHT22;1280;49.760;9.664;2022-07-29T10:10:24;25.90;54.50
2539;DHT22;1280;49.760;9.664;2022-07-29T10:12:54;25.90;54.40
2539;DHT22;1280;49.760;9.664;2022-07-29T10:15:27;25.90;54.40
2539;DHT22;1280;49.760;9.664;2022-07-29T10:17:56;25.90;54.50
2539;DHT22;1280;49.760;9.664;2022-07-29T10:20:27;25.90;54.60
2539;DHT22;1280;49.760;9.664;2022-07-29T10:22:55;26.00;54.60
2539;DHT22;1280;49.760;9.664;2022-07-29T10:25:24;26.00;54.60
2539;DHT22;1280;49.760;9.664;2022-07-29T10:27:53;26.10;54.60
2539;DHT22;1280;49.760;9.664;2022-07-29T10:30:23;26.10;54.60
2539;DHT22;1280;49.760;9.664;2022-07-29T10:35:54;26.20;54.60
2539;DHT22;1280;49.760;9.664;2022-07-29T10:38:44;26.20;54.90
2539;DHT22;1280;49.760;9.664;2022-07-29T10:41:29;26.20;55.00
2539;DHT22;1280;49.760;9.664;2022-07-29T10:44:14;26.30;55.00
2539;DHT22;1280;49.760;9.664;2022-07-29T10:46:45;26.30;55.20
2539;DHT22;1280;49.760;9.664;2022-07-29T10:49:16;26.30;55.20
2539;DHT22;1280;49.760;9.664;2022-07-29T10:51:57;26.40;55.20
2539;DHT22;1280;49.760;9.664;2022-07-29T10:54:48;26.40;55.20
2539;DHT22;1280;49.760;9.664;2022-07-29T10:57:22;26.50;55.20
2539;DHT22;1280;49.760;9.664;2022-07-29T11:00:29;26.50;55.20
2539;DHT22;1280;49.760;9.664;2022-07-29T11:02:58;26.50;55.30
2539;DHT22;1280;49.760;9.664;2022-07-29T11:05:54;26.50;55.30
2539;DHT22;1280;49.760;9.664;2022-07-29T11:08:27;26.60;55.40
2539;DHT22;1280;49.760;9.664;2022-07-29T11:14:09;26.70;55.60
2539;DHT22;1280;49.760;9.664;2022-07-29T11:17:00;26.80;55.60
2539;DHT22;1280;49.760;9.664;2022-07-29T11:19:32;26.90;55.50
2539;DHT22;1280;49.760;9.664;2022-07-29T11:22:02;26.90;55.40
2539;DHT22;1280;49.760;9.664;2022-07-29T11:24:32;26.90;55.40
2539;DHT22;1280;49.760;9.664;2022-07-29T11:27:13;26.90;55.40
2539;DHT22;1280;49.760;9.664;2022-07-29T11:29:53;27.00;55.30
2539;DHT22;1280;49.760;9.664;2022-07-29T11:32:23;27.00;55.30
2539;DHT22;1280;49.760;9.664;2022-07-29T11:35:14;27.00;55.30
2539;DHT22;1280;49.760;9.664;2022-07-29T11:37:45;27.00;55.20
2539;DHT22;1280;49.760;9.664;2022-07-29T11:40:22;27.00;55.20
2539;DHT22;1280;49.760;9.664;2022-07-29T11:42:51;27.00;55.20
2539;DHT22;1280;49.760;9.664;2022-07-29T11:45:45;27.10;55.30
2539;DHT22;1280;49.760;9.664;2022-07-29T11:48:17;27.10;55.40
2539;DHT22;1280;49.760;9.664;2022-07-29T11:50:58;27.10;55.40
2539;DHT22;1280;49.760;9.664;2022-07-29T11:53:26;27.20;55.50
2539;DHT22;1280;49.760;9.664;2022-07-29T11:56:00;27.20;55.50
2539;DHT22;1280;49.760;9.664;2022-07-29T11:58:29;27.30;55.40
2539;DHT22;1280;49.760;9.664;2022-07-29T12:00:59;27.30;55.50
2539;DHT22;1280;49.760;9.664;2022-07-29T12:03:32;27.40;55.70
2539;DHT22;1280;49.760;9.664;2022-07-29T12:06:04;27.40;55.70
2539;DHT22;1280;49.760;9.664;2022-07-29T12:08:40;27.50;55.70
2539;DHT22;1280;49.760;9.664;2022-07-29T12:11:17;27.50;55.70
2539;DHT22;1280;49.760;9.664;2022-07-29T12:13:48;27.60;55.60
2539;DHT22;1280;49.760;9.664;2022-07-29T12:16:17;27.60;55.40
2539;DHT22;1280;49.760;9.664;2022-07-29T12:18:59;27.60;55.20
2539;DHT22;1280;49.760;9.664;2022-07-29T12:21:35;27.60;55.20
2539;DHT22;1280;49.760;9.664;2022-07-29T12:24:25;27.60;55.10
2539;DHT22;1280;49.760;9.664;2022-07-29T12:26:56;27.50;55.20
2539;DHT22;1280;49.760;9.664;2022-07-29T12:29:25;27.50;55.20
2539;DHT22;1280;49.760;9.664;2022-07-29T12:32:02;27.50;55.10
2539;DHT22;1280;49.760;9.664;2022-07-29T12:34:45;27.50;55.10
2539;DHT22;1280;49.760;9.664;2022-07-29T12:37:13;27.40;55.10
2539;DHT22;1280;49.760;9.664;2022-07-29T12:39:41;27.40;55.00
2539;DHT22;1280;49.760;9.664;2022-07-29T12:42:15;27.40;54.90
2539;DHT22;1280;49.760;9.664;2022-07-29T12:44:46;27.30;55.00
2539;DHT22;1280;49.760;9.664;2022-07-29T12:47:15;27.30;55.00
2539;DHT22;1280;49.760;9.664;2022-07-29T12:49:44;27.30;55.00
2539;DHT22;1280;49.760;9.664;2022-07-29T12:52:30;27.20;55.10
2539;DHT22;1280;49.760;9.664;2022-07-29T12:54:59;27.20;55.10
2539;DHT22;1280;49.760;9.664;2022-07-29T12:57:29;27.20;55.20
2539;DHT22;1280;49.760;9.664;2022-07-29T13:00:04;27.10;55.40
2539;DHT22;1280;49.760;9.664;2022-07-29T13:02:34;27.10;55.60
2539;DHT22;1280;49.760;9.664;2022-07-29T13:05:05;27.00;56.30
2539;DHT22;1280;49.760;9.664;2022-07-29T13:07:35;26.90;57.00
2539;DHT22;1280;49.760;9.664;2022-07-29T13:10:23;26.90;57.50
2539;DHT22;1280;49.760;9.664;2022-07-29T13:13:06;26.70;58.70
2539;DHT22;1280;49.760;9.664;2022-07-29T13:15:37;26.50;59.80
2539;DHT22;1280;49.760;9.664;2022-07-29T13:18:17;26.40;60.60
2539;DHT22;1280;49.760;9.664;2022-07-29T13:20:53;26.30;61.20
2539;DHT22;1280;49.760;9.664;2022-07-29T13:23:21;26.10;61.80
2539;DHT22;1280;49.760;9.664;2022-07-29T13:25:49;26.00;62.30
2539;DHT22;1280;49.760;9.664;2022-07-29T13:28:19;25.80;62.30
2539;DHT22;1280;49.760;9.664;2022-07-29T13:30:48;25.70;63.00
2539;DHT22;1280;49.760;9.664;2022-07-29T13:33:16;25.60;63.40
2539;DHT22;1280;49.760;9.664;2022-07-29T13:35:44;25.50;64.00
2539;DHT22;1280;49.760;9.664;2022-07-29T13:38:14;25.40;64.40
2539;DHT22;1280;49.760;9.664;2022-07-29T13:40:42;25.40;65.00
2539;DHT22;1280;49.760;9.664;2022-07-29T13:43:10;25.40;65.50
2539;DHT22;1280;49.760;9.664;2022-07-29T13:45:39;25.30;65.60
2539;DHT22;1280;49.760;9.664;2022-07-29T13:48:08;25.30;66.20
2539;DHT22;1280;49.760;9.664;2022-07-29T13:50:36;25.30;66.40
2539;DHT22;1280;49.760;9.664;2022-07-29T13:53:04;25.20;66.60
2539;DHT22;1280;49.760;9.664;2022-07-29T13:55:32;25.20;67.00
2539;DHT22;1280;49.760;9.664;2022-07-29T13:58:00;25.20;67.30
2539;DHT22;1280;49.760;9.664;2022-07-29T14:00:30;25.30;67.50
2539;DHT22;1280;49.760;9.664;2022-07-29T14:02:59;25.30;67.70
2539;DHT22;1280;49.760;9.664;2022-07-29T14:05:27;25.30;67.80
2539;DHT22;1280;49.760;9.664;2022-07-29T14:07:55;25.30;67.90
2539;DHT22;1280;49.760;9.664;2022-07-29T14:10:23;25.40;68.00
2539;DHT22;1280;49.760;9.664;2022-07-29T14:12:51;25.30;68.20
2539;DHT22;1280;49.760;9.664;2022-07-29T14:15:19;25.40;68.30
2539;DHT22;1280;49.760;9.664;2022-07-29T14:17:47;25.30;68.40
2539;DHT22;1280;49.760;9.664;2022-07-29T14:20:17;25.30;68.50
2539;DHT22;1280;49.760;9.664;2022-07-29T14:22:44;25.30;68.60
2539;DHT22;1280;49.760;9.664;2022-07-29T14:25:13;25.20;68.80
2539;DHT22;1280;49.760;9.664;2022-07-29T14:27:42;25.20;68.90
2539;DHT22;1280;49.760;9.664;2022-07-29T14:30:11;25.10;69.00
2539;DHT22;1280;49.760;9.664;2022-07-29T14:32:39;25.10;69.30
2539;DHT22;1280;49.760;9.664;2022-07-29T14:35:07;25.00;69.50
2539;DHT22;1280;49.760;9.664;2022-07-29T14:37:39;25.00;69.70
2539;DHT22;1280;49.760;9.664;2022-07-29T14:40:09;25.00;70.10
2539;DHT22;1280;49.760;9.664;2022-07-29T14:42:37;24.90;70.20
2539;DHT22;1280;49.760;9.664;2022-07-29T14:45:07;24.90;70.40
2539;DHT22;1280;49.760;9.664;2022-07-29T14:47:36;24.80;70.60
2539;DHT22;1280;49.760;9.664;2022-07-29T14:50:05;24.80;70.80
2539;DHT22;1280;49.760;9.664;2022-07-29T14:52:34;24.70;71.00
2539;DHT22;1280;49.760;9.664;2022-07-29T14:55:04;24.70;71.20
2539;DHT22;1280;49.760;9.664;2022-07-29T14:57:46;24.70;71.20
2539;DHT22;1280;49.760;9.664;2022-07-29T15:00:15;24.60;71.40
2539;DHT22;1280;49.760;9.664;2022-07-29T15:02:43;24.50;71.50
2539;DHT22;1280;49.760;9.664;2022-07-29T15:05:28;24.50;71.70
2539;DHT22;1280;49.760;9.664;2022-07-29T15:07:56;24.40;71.90
2539;DHT22;1280;49.760;9.664;2022-07-29T15:10:25;24.40;72.00
2539;DHT22;1280;49.760;9.664;2022-07-29T15:12:53;24.30;72.00
2539;DHT22;1280;49.760;9.664;2022-07-29T15:15:22;24.30;72.20
2539;DHT22;1280;49.760;9.664;2022-07-29T15:17:50;24.30;72.30
2539;DHT22;1280;49.760;9.664;2022-07-29T15:20:18;24.20;72.40
2539;DHT22;1280;49.760;9.664;2022-07-29T15:22:46;24.20;72.40
2539;DHT22;1280;49.760;9.664;2022-07-29T15:25:14;24.10;72.50
2539;DHT22;1280;49.760;9.664;2022-07-29T15:27:43;24.10;72.60
2539;DHT22;1280;49.760;9.664;2022-07-29T15:30:18;24.00;72.70
2539;DHT22;1280;49.760;9.664;2022-07-29T15:32:59;24.00;72.70
2539;DHT22;1280;49.760;9.664;2022-07-29T15:35:28;23.90;72.80
2539;DHT22;1280;49.760;9.664;2022-07-29T15:37:56;23.80;73.10
2539;DHT22;1280;49.760;9.664;2022-07-29T15:40:24;23.80;73.20
2539;DHT22;1280;49.760;9.664;2022-07-29T15:42:53;23.70;73.30
2539;DHT22;1280;49.760;9.664;2022-07-29T15:45:21;23.70;73.60
2539;DHT22;1280;49.760;9.664;2022-07-29T15:47:50;23.70;73.70
2539;DHT22;1280;49.760;9.664;2022-07-29T15:50:18;23.70;73.80
2539;DHT22;1280;49.760;9.664;2022-07-29T15:52:46;23.70;73.90
2539;DHT22;1280;49.760;9.664;2022-07-29T15:55:14;23.70;74.00
2539;DHT22;1280;49.760;9.664;2022-07-29T15:57:42;23.70;74.10
2539;DHT22;1280;49.760;9.664;2022-07-29T16:00:12;23.70;74.10
2539;DHT22;1280;49.760;9.664;2022-07-29T16:02:42;23.60;74.20
2539;DHT22;1280;49.760;9.664;2022-07-29T16:05:11;23.60;74.40
2539;DHT22;1280;49.760;9.664;2022-07-29T16:07:39;23.50;74.40
2539;DHT22;1280;49.760;9.664;2022-07-29T16:10:07;23.50;74.40
2539;DHT22;1280;49.760;9.664;2022-07-29T16:12:35;23.50;74.40
2539;DHT22;1280;49.760;9.664;2022-07-29T16:15:04;23.40;74.50
2539;DHT22;1280;49.760;9.664;2022-07-29T16:17:38;23.40;74.50
2539;DHT22;1280;49.760;9.664;2022-07-29T16:20:07;23.40;74.50
2539;DHT22;1280;49.760;9.664;2022-07-29T16:22:36;23.30;74.50
2539;DHT22;1280;49.760;9.664;2022-07-29T16:25:05;23.30;74.60
2539;DHT22;1280;49.760;9.664;2022-07-29T16:27:33;23.30;74.70
2539;DHT22;1280;49.760;9.664;2022-07-29T16:30:05;23.20;74.80
2539;DHT22;1280;49.760;9.664;2022-07-29T16:32:36;23.20;74.90
2539;DHT22;1280;49.760;9.664;2022-07-29T16:35:06;23.20;75.10
2539;DHT22;1280;49.760;9.664;2022-07-29T16:37:34;23.20;75.20